FW4353 Weather Reports


Display with metric or nautical units.
time (UTC)temp
F
wind
direction
speed
MPH
gust
MPH
rain 1hr
in
rain 24hr
in
rain mn
in
humidity
%
barometer
mb
20191018032942 50 216 1.0 1.0 0.00 0.03 0.03 67 1007.6
20191018031942 50 217 2.0 2.0 0.00 0.03 0.03 67 1007.2
20191018030942 50 237 1.0 1.0 0.00 0.03 0.03 67 1007.6
20191018025942 51 223 2.0 2.0 0.00 0.03 0.03 66 1007.6
20191018024942 51 227 2.0 3.0 0.00 0.03 0.03 66 1007.2
20191018023942 51 198 3.0 5.0 0.00 0.03 0.03 66 1007.6
20191018022942 51 221 1.0 1.0 0.00 0.03 0.03 65 1007.9
20191018021942 51 230 3.0 5.0 0.00 0.03 0.03 65 1007.9
20191018020942 52 230 2.0 2.0 0.00 0.03 0.03 65 1007.9
20191018015942 52 219 1.0 2.0 0.00 0.03 0.03 66 1007.9
20191018014942 52 230 1.0 1.0 0.00 0.03 0.03 65 1007.6
20191018013942 53 200 3.0 5.0 0.00 0.03 0.03 63 1007.6
20191018012942 53 236 5.0 6.0 0.00 0.03 0.03 63 1007.9
20191018011942 53 248 5.0 7.0 0.00 0.03 0.03 62 1007.9
20191018010945 54 220 4.0 6.0 0.00 0.03 0.03 63 1007.6
20191018005942 54 347 4.0 5.0 0.00 0.03 0.03 61 1007.6
20191018004942 54 247 1.0 2.0 0.00 0.03 0.03 61 1007.6
20191018003942 54 243 3.0 3.0 0.00 0.03 0.03 61 1007.6
20191018002942 54 218 1.0 1.0 0.00 0.03 0.03 62 1007.6
20191018001948 55 222 2.0 2.0 0.00 0.03 0.03 63 1007.6
20191018000944 55 232 6.0 7.0 0.00 0.03 0.03 62 1007.2
20191017235942 55 202 2.0 3.0 0.00 0.03 0.03 60 1007.2
20191017234942 56 248 3.0 5.0 0.00 0.03 0.03 56 1007.2
20191017233942 56 219 3.0 3.0 0.00 0.03 0.03 55 1007.6
20191017232942 56 171 3.0 5.0 0.00 0.03 0.03 56 1007.2
20191017231947 56 250 5.0 6.0 0.00 0.03 0.03 55 1007.2
20191017230942 56 281 2.0 3.0 0.00 0.03 0.03 54 1007.2
20191017225942 56 234 3.0 5.0 0.00 0.03 0.03 54 1007.6
20191017224942 56 241 3.0 3.0 0.00 0.03 0.03 53 1007.2
20191017223942 56 236 1.0 2.0 0.00 0.03 0.03 52 1007.6
20191017222942 57 179 3.0 5.0 0.00 0.03 0.03 53 1007.6
20191017221942 57 230 2.0 3.0 0.00 0.03 0.03 52 1007.6
20191017220942 57 206 2.0 3.0 0.00 0.03 0.03 51 1007.2
20191017215942 57 265 3.0 5.0 0.00 0.03 0.03 53 1007.2
20191017214942 58 226 3.0 5.0 0.00 0.03 0.03 51 1007.2
20191017213942 57 259 8.0 10.0 0.00 0.03 0.03 50 1007.2
20191017212942 58 328 2.0 3.0 0.00 0.03 0.03 51 1006.8
20191017211944 58 244 2.0 2.0 0.00 0.03 0.03 51 1007.2
20191017210942 58 183 4.0 6.0 0.00 0.03 0.03 52 1006.8
20191017205942 57 225 7.0 8.0 0.00 0.03 0.03 54 1006.8
20191017204942 57 175 5.0 8.0 0.00 0.03 0.03 54 1006.8
20191017203942 58 241 6.0 7.0 0.00 0.03 0.03 53 1006.5
20191017202942 57 222 5.0 7.0 0.00 0.03 0.03 55 1006.8
20191017201942 58 221 2.0 2.0 0.00 0.03 0.03 56 1007.2
20191017200942 57 272 3.0 3.0 0.00 0.03 0.03 56 1007.2
20191017195942 57 266 4.0 5.0 0.00 0.03 0.03 55 1007.2
20191017194942 57 252 5.0 8.0 0.00 0.03 0.03 56 1007.2
20191017192942 56 256 6.0 8.0 0.00 0.03 0.03 58 1006.8
20191017191942 56 220 3.0 5.0 0.00 0.03 0.03 59 1007.2
20191017190942 55 222 3.0 5.0 0.00 0.03 0.03 60 1007.2
20191017185942 54 244 5.0 8.0 0.00 0.03 0.03 64 1006.8
20191017184942 55 223 0.0 1.0 0.00 0.03 0.03 64 1006.8
20191017183942 54 253 3.0 3.0 0.00 0.03 0.03 66 1006.8
20191017182942 53 270 3.0 3.0 0.00 0.03 0.03 68 1006.8
20191017181942 54 220 4.0 6.0 0.00 0.03 0.03 68 1007.2
20191017180942 53 249 5.0 8.0 0.00 0.03 0.03 71 1006.8
20191017175943 51 208 2.0 3.0 0.00 0.03 0.03 77 1007.2
20191017174942 51 219 1.0 1.0 0.00 0.03 0.03 77 1006.8
20191017173942 51 248 4.0 5.0 0.00 0.03 0.03 78 1006.8
20191017172942 50 210 4.0 6.0 0.00 0.03 0.03 79 1006.8
20191017171942 51 224 1.0 2.0 0.00 0.03 0.03 80 1006.8
20191017170942 50 221 3.0 5.0 0.00 0.03 0.03 80 1006.8
20191017165942 50 249 4.0 5.0 0.00 0.03 0.03 80 1006.5
20191017164942 50 285 2.0 3.0 0.00 0.03 0.03 82 1006.8
20191017163942 50 230 3.0 3.0 0.00 0.03 0.03 82 1006.8
20191017162942 50 262 4.0 6.0 0.00 0.03 0.03 83 1006.8
20191017161942 50 235 1.0 2.0 0.00 0.03 0.03 85 1006.5
20191017160942 50 220 1.0 2.0 0.00 0.03 0.03 86 1006.1
20191017155942 49 252 1.0 2.0 0.00 0.03 0.03 87 1006.5
20191017154942 49 194 1.0 1.0 0.00 0.03 0.03 87 1006.1
20191017153942 49 212 1.0 1.0 0.00 0.03 0.03 87 1006.1
20191017152942 49 150 2.0 3.0 0.00 0.03 0.03 88 1006.1
20191017151942 49 227 2.0 2.0 0.00 0.03 0.03 88 1006.1
20191017150942 49 220 1.0 1.0 0.00 0.03 0.03 88 1006.1
20191017145942 49 244 1.0 1.0 0.00 0.03 0.03 89 1005.8
20191017144942 49 224 1.0 1.0 0.00 0.03 0.03 89 1005.8
20191017143942 49 227 1.0 2.0 0.00 0.03 0.03 89 1005.8
20191017142942 49 235 1.0 2.0 0.00 0.03 0.03 89 1006.1
20191017141942 49 230 1.0 2.0 0.00 0.03 0.03 89 1005.8
20191017140942 49 179 2.0 3.0 0.00 0.03 0.03 88 1005.4
20191017135942 49 207 1.0 1.0 0.00 0.03 0.03 88 1006.1
20191017134942 49 220 1.0 2.0 0.00 0.03 0.03 89 1005.8
20191017133942 49 200 0.0 1.0 0.00 0.03 0.03 88 1006.1
20191017132942 49 241 2.0 2.0 0.00 0.03 0.03 89 1006.1
20191017131942 49 215 0.0 1.0 0.00 0.03 0.03 89 1006.1
20191017130942 49 204 2.0 2.0 0.00 0.03 0.03 89 1006.1
20191017125942 49 202 1.0 2.0 0.00 0.03 0.03 90 1006.1
20191017124942 49 213 1.0 1.0 0.00 0.03 0.03 90 1006.1
20191017123942 49 211 1.0 1.0 0.00 0.03 0.03 90 1006.1
20191017122942 49 200 2.0 3.0 0.00 0.03 0.03 90 1005.8
20191017121942 49 229 2.0 2.0 0.00 0.03 0.03 91 1006.1
20191017120942 49 194 2.0 2.0 0.00 0.03 0.03 91 1006.1
20191017115942 49 181 1.0 2.0 0.00 0.03 0.03 91 1005.8
20191017114942 49 0.0 0.0 0.00 0.03 0.03 91 1005.8
20191017113942 49 0.0 0.0 0.00 0.03 0.03 91 1006.1
20191017112942 49 0.0 0.0 0.00 0.03 0.03 90 1005.8
20191017111942 49 215 1.0 2.0 0.01 0.03 0.03 91 1006.1
20191017110942 49 207 2.0 2.0 0.02 0.03 0.03 90 1006.1
20191017105942 49 215 2.0 2.0 0.02 0.03 0.03 91 1006.5
20191017104942 49 0.0 0.0 0.03 0.03 0.03 91 1006.5
20191017103942 50 216 2.0 2.0 0.03 0.03 0.03 91 1006.5
20191017102943 50 0.0 0.0 0.03 0.03 0.03 89 1006.5
20191017101942 50 243 2.0 2.0 0.02 0.02 0.02 88 1006.8
20191017100943 50 233 0.0 1.0 0.01 0.01 0.01 89 1007.2
20191017095943 51 244 2.0 3.0 0.01 0.01 0.01 87 1006.5
20191017094942 51 232 2.0 3.0 0.00 0.00 0.00 84 1007.2
20191017093942 52 244 1.0 2.0 0.00 0.00 0.00 81 1006.8
20191017092942 52 0.0 0.0 0.00 0.00 0.00 80 1007.2
20191017091942 52 210 1.0 1.0 0.00 0.00 0.00 78 1007.6
20191017090942 52 248 2.0 2.0 0.00 0.00 0.00 78 1007.2
20191017085942 52 226 0.0 1.0 0.00 0.00 0.00 77 1006.8
20191017084942 52 217 1.0 1.0 0.00 0.00 0.00 76 1006.8
20191017083942 52 212 1.0 2.0 0.00 0.00 0.00 77 1006.8
20191017082942 52 230 1.0 1.0 0.00 0.00 0.00 76 1006.5
20191017081942 53 226 1.0 1.0 0.00 0.00 0.00 75 1006.1
20191017080942 53 228 3.0 3.0 0.00 0.00 0.00 73 1006.5
20191017075942 54 228 1.0 2.0 0.00 0.00 0.00 72 1006.8
20191017074942 53 250 2.0 2.0 0.00 0.00 0.00 73 1006.1
20191017073942 51 254 3.0 3.0 0.00 0.00 0.00 81 1006.5
20191017072946 51 0.0 0.0 0.00 0.00 0.00 84 1006.5
20191017071948 51 201 0.0 1.0 0.00 0.00 0.00 83 1006.5
20191017070947 52 216 0.0 1.0 0.00 0.00 0.00 81 1006.1
20191017065942 52 171 1.0 1.0 0.00 0.00 0.00 80 1006.1
20191017064941 51 212 1.0 1.0 0.00 0.00 0.00 81 1006.1
20191017063942 51 0.0 0.0 0.00 0.00 0.00 83 1006.5
20191017062942 51 0.0 0.0 0.00 0.00 0.00 83 1006.5
20191017061942 51 0.0 0.0 0.00 0.00 0.00 82 1006.8
20191017060948 51 0.0 0.0 0.00 0.00 0.00 82 1006.5
20191017055946 52 240 1.0 1.0 0.00 0.00 0.00 81 1006.1
20191017054948 52 229 1.0 1.0 0.00 0.00 0.00 81 1006.5
20191017053945 52 210 1.0 1.0 0.00 0.00 0.00 81 1007.2
20191017052942 52 232 1.0 1.0 0.00 0.00 0.00 78 1006.5
20191017051946 52 0.0 0.0 0.00 0.00 0.00 80 1007.2
20191017050945 52 206 0.0 1.0 0.00 0.00 0.00 78 1006.5
20191017045944 52 238 1.0 1.0 0.00 0.00 0.00 78 1006.5
20191017044948 52 0.0 0.0 0.00 0.00 0.00 77 1007.2
20191017043947 52 0.0 0.0 0.00 0.00 0.00 78 1007.2
20191017042942 52 213 1.0 1.0 0.00 0.00 0.00 78 1007.6
20191017041946 52 0.0 0.0 0.00 0.00 0.00 78 1007.2
20191017040843 53 226 0.0 1.0 0.00 0.00 0.00 77 1007.2
20191017035943 53 0.0 0.0 0.00 0.00 0.00 75 1007.6
20191017034944 53 0.0 0.0 0.00 0.00 0.00 75 1007.6
20191017033946 53 230 0.0 1.0 0.00 0.00 0.00 75 1007.9